createdAt,value
2023-04-15T00:02:15.908Z,9.21
2023-04-15T00:04:43.552Z,9.00
2023-04-15T00:07:11.131Z,8.99
2023-04-15T00:09:38.687Z,8.87
2023-04-15T00:12:07.980Z,9.30
2023-04-15T00:14:36.617Z,9.00
2023-04-15T00:17:04.395Z,9.20
2023-04-15T00:19:32.518Z,9.47
2023-04-15T00:22:00.789Z,9.65
2023-04-15T00:24:28.201Z,9.31
2023-04-15T00:26:55.763Z,9.24
2023-04-15T00:29:24.620Z,9.26
2023-04-15T00:31:52.145Z,9.49
2023-04-15T00:34:19.555Z,9.28
2023-04-15T00:36:47.072Z,9.72
2023-04-15T00:39:14.727Z,9.76
2023-04-15T00:41:42.139Z,9.78
2023-04-15T00:44:10.497Z,9.97
2023-04-15T00:46:40.298Z,9.98
2023-04-15T00:49:08.240Z,9.98
2023-04-15T00:51:37.095Z,10.11
2023-04-15T00:54:05.124Z,10.08
2023-04-15T00:56:36.004Z,10.51
2023-04-15T00:59:03.511Z,10.44
2023-04-15T01:01:31.431Z,10.26
2023-04-15T01:04:00.375Z,10.18
2023-04-15T01:06:28.193Z,10.27
2023-04-15T01:08:56.562Z,10.07
2023-04-15T01:11:24.996Z,10.22
2023-04-15T01:13:52.980Z,9.75
2023-04-15T01:16:21.307Z,10.55
2023-04-15T01:18:49.588Z,10.59
2023-04-15T01:21:19.353Z,10.79
2023-04-15T01:23:48.890Z,10.18
2023-04-15T01:26:18.264Z,10.23
2023-04-15T01:28:46.063Z,10.41
2023-04-15T01:31:15.345Z,10.29
2023-04-15T01:33:44.348Z,10.23
2023-04-15T01:36:11.825Z,10.43
2023-04-15T01:38:39.977Z,9.99
2023-04-15T01:41:08.262Z,10.52
2023-04-15T01:43:37.774Z,10.22
2023-04-15T01:46:05.322Z,10.53
2023-04-15T01:48:33.464Z,10.17
2023-04-15T01:54:24.263Z,9.98
2023-04-15T01:56:52.074Z,10.38
2023-04-15T01:59:20.929Z,10.26
2023-04-15T02:01:48.393Z,10.13
2023-04-15T02:04:17.323Z,9.92
2023-04-15T02:06:44.894Z,9.85
2023-04-15T02:09:12.403Z,9.92
2023-04-15T02:11:39.876Z,9.74
2023-04-15T02:14:07.356Z,10.18
2023-04-15T02:16:36.604Z,10.02
2023-04-15T02:19:04.266Z,10.26
2023-04-15T02:21:31.851Z,10.33
2023-04-15T02:23:59.289Z,10.30
2023-04-15T02:26:26.699Z,10.54
2023-04-15T02:28:54.202Z,10.94
2023-04-15T02:31:22.183Z,10.69
2023-04-15T02:33:51.059Z,10.49
2023-04-15T02:36:18.482Z,10.72
2023-04-15T02:38:45.937Z,9.75
2023-04-15T02:41:13.651Z,10.17
2023-04-15T02:43:41.123Z,10.07
2023-04-15T02:46:08.756Z,10.09
2023-04-15T02:48:36.934Z,10.70
2023-04-15T02:51:16.771Z,9.75
2023-04-15T02:53:44.361Z,9.46
2023-04-15T02:56:12.556Z,9.52
2023-04-15T02:58:41.341Z,10.24
2023-04-15T03:01:09.135Z,10.33
2023-04-15T03:03:36.871Z,9.47
2023-04-15T03:06:04.553Z,9.45
2023-04-15T03:08:33.365Z,9.41
2023-04-15T03:11:02.689Z,9.57
2023-04-15T03:13:30.160Z,9.53
2023-04-15T03:15:57.667Z,10.00
2023-04-15T03:18:25.407Z,9.74
2023-04-15T03:20:52.880Z,9.78
2023-04-15T03:23:20.752Z,9.47
2023-04-15T03:25:58.077Z,9.60
2023-04-15T03:28:26.875Z,9.52
2023-04-15T03:30:54.337Z,9.94
2023-04-15T03:33:21.825Z,9.86
2023-04-15T03:35:49.432Z,9.91
2023-04-15T03:38:19.085Z,10.49
2023-04-15T03:40:49.380Z,10.21
2023-04-15T03:43:17.136Z,9.83
2023-04-15T03:45:44.709Z,9.96
2023-04-15T03:48:17.682Z,9.65
2023-04-15T03:50:46.033Z,9.47
2023-04-15T03:53:13.562Z,9.88
2023-04-15T03:55:41.032Z,9.80
2023-04-15T03:58:12.794Z,9.86
2023-04-15T04:00:41.426Z,9.81
2023-04-15T04:03:09.222Z,9.63
2023-04-15T04:05:39.062Z,10.45
2023-04-15T04:08:07.225Z,9.90
2023-04-15T04:10:36.581Z,9.57
2023-04-15T04:13:04.090Z,10.24
2023-04-15T04:15:32.984Z,10.40
2023-04-15T04:18:00.863Z,10.62
2023-04-15T04:20:28.387Z,10.31
2023-04-15T04:22:55.991Z,10.55
2023-04-15T04:25:24.509Z,10.54
2023-04-15T04:27:52.085Z,10.35
2023-04-15T04:30:19.795Z,10.25
2023-04-15T04:32:48.636Z,10.10
2023-04-15T04:35:16.116Z,10.33
2023-04-15T04:37:43.538Z,10.39
2023-04-15T04:40:11.959Z,10.92
2023-04-15T04:42:40.105Z,11.43
2023-04-15T04:45:08.621Z,11.16
2023-04-15T04:47:36.375Z,10.79
2023-04-15T04:50:05.848Z,11.24
2023-04-15T04:52:33.344Z,10.87
2023-04-15T04:55:00.841Z,10.79
2023-04-15T04:57:28.363Z,10.35
2023-04-15T04:59:55.920Z,10.88
2023-04-15T05:02:23.615Z,9.96
2023-04-15T05:04:54.388Z,10.22
2023-04-15T05:07:23.347Z,10.00
2023-04-15T05:09:50.885Z,10.25
2023-04-15T05:12:18.471Z,10.08
2023-04-15T05:14:46.743Z,9.82
2023-04-15T05:17:14.299Z,10.08
2023-04-15T05:19:41.684Z,10.01
2023-04-15T05:22:09.279Z,11.01
2023-04-15T05:24:38.045Z,10.60
2023-04-15T05:27:05.565Z,10.45
2023-04-15T05:29:33.002Z,10.42
2023-04-15T05:32:00.502Z,10.93
2023-04-15T05:34:27.936Z,11.16
2023-04-15T05:36:55.416Z,10.83
2023-04-15T05:39:22.936Z,10.86
2023-04-15T05:41:52.103Z,10.80
2023-04-15T05:44:19.645Z,10.95
2023-04-15T05:46:47.188Z,10.93
2023-04-15T05:49:14.712Z,10.68
2023-04-15T05:51:42.216Z,11.09
2023-04-15T05:54:09.637Z,10.34
2023-04-15T05:56:37.109Z,10.44
2023-04-15T05:59:05.827Z,10.86
2023-04-15T06:01:34.894Z,11.85
2023-04-15T06:04:03.137Z,11.20
2023-04-15T06:06:30.853Z,11.75
2023-04-15T06:08:58.321Z,11.73
2023-04-15T06:11:26.734Z,11.07
2023-04-15T06:13:54.176Z,10.86
2023-04-15T06:16:23.199Z,10.53
2023-04-15T06:18:50.712Z,11.03
2023-04-15T06:21:18.176Z,11.42
2023-04-15T06:23:45.856Z,11.29
2023-04-15T06:26:13.285Z,11.30
2023-04-15T06:28:40.702Z,11.30
2023-04-15T06:31:08.168Z,12.08
2023-04-15T06:33:36.893Z,11.24
2023-04-15T06:36:04.510Z,11.76
2023-04-15T06:38:32.104Z,11.13
2023-04-15T06:40:59.570Z,11.13
2023-04-15T06:43:27.037Z,11.73
2023-04-15T06:45:54.529Z,11.75
2023-04-15T06:48:22.074Z,11.69
2023-04-15T06:50:51.449Z,12.65
2023-04-15T06:53:19.537Z,12.85
2023-04-15T06:55:46.961Z,12.42
2023-04-15T06:58:14.403Z,12.15
2023-04-15T07:00:41.817Z,11.52
2023-04-15T07:03:11.298Z,11.28
2023-04-15T07:05:38.839Z,12.44
2023-04-15T07:08:07.684Z,12.03
2023-04-15T07:10:35.253Z,11.27
2023-04-15T07:13:02.803Z,11.41
2023-04-15T07:15:30.212Z,11.50
2023-04-15T07:17:57.664Z,11.58
2023-04-15T07:20:25.638Z,11.59
2023-04-15T07:22:53.170Z,10.91
2023-04-15T07:25:22.268Z,11.00
2023-04-15T07:27:49.737Z,11.22
2023-04-15T07:30:17.407Z,11.42
2023-04-15T07:32:44.817Z,11.21
2023-04-15T07:35:12.264Z,11.47
2023-04-15T07:37:39.740Z,10.87
2023-04-15T07:40:09.013Z,10.87
2023-04-15T07:42:40.036Z,10.81
2023-04-15T07:45:09.894Z,10.80
2023-04-15T07:47:37.392Z,10.86
2023-04-15T07:50:05.357Z,11.00
2023-04-15T07:52:38.417Z,11.07
2023-04-15T07:55:07.092Z,11.95
2023-04-15T07:57:34.548Z,10.78
2023-04-15T08:00:05.796Z,11.10
2023-04-15T08:02:33.466Z,10.76
2023-04-15T08:05:02.961Z,10.49
2023-04-15T08:07:30.504Z,10.81
2023-04-15T08:09:57.920Z,11.10
2023-04-15T08:12:25.838Z,10.86
2023-04-15T08:14:53.265Z,10.86
2023-04-15T08:17:22.031Z,10.65
2023-04-15T08:19:58.711Z,10.96
2023-04-15T08:22:26.162Z,10.91
2023-04-15T08:24:53.566Z,10.68
2023-04-15T08:27:21.510Z,10.86
2023-04-15T08:29:48.936Z,10.64
2023-04-15T08:32:16.965Z,10.58
2023-04-15T08:34:45.829Z,10.62
2023-04-15T08:37:13.492Z,11.43
2023-04-15T08:39:40.955Z,11.04
2023-04-15T08:42:16.986Z,10.56
2023-04-15T08:44:44.625Z,11.20
2023-04-15T08:47:14.856Z,11.55
2023-04-15T08:49:43.716Z,11.20
2023-04-15T08:52:12.729Z,11.39
2023-04-15T08:54:40.638Z,11.16
2023-04-15T08:57:08.597Z,11.41
2023-04-15T08:59:36.406Z,11.06
2023-04-15T09:02:04.638Z,10.75
2023-04-15T09:04:32.380Z,10.92
2023-04-15T09:06:59.758Z,11.23
2023-04-15T09:09:29.111Z,11.29
2023-04-15T09:11:56.806Z,10.94
2023-04-15T09:14:24.238Z,10.95
2023-04-15T09:16:58.436Z,11.36
2023-04-15T09:19:26.502Z,12.02
2023-04-15T09:21:58.635Z,11.01
2023-04-15T09:24:37.375Z,11.23
2023-04-15T09:27:05.441Z,11.22
2023-04-15T09:29:34.220Z,11.50
2023-04-15T09:32:13.941Z,11.26
2023-04-15T09:34:41.827Z,11.67
2023-04-15T09:37:10.939Z,11.96
2023-04-15T09:39:51.047Z,11.12
2023-04-15T09:42:24.553Z,11.10
2023-04-15T09:44:52.762Z,11.02
2023-04-15T09:47:30.111Z,11.06
2023-04-15T09:49:58.506Z,11.33
2023-04-15T09:52:26.178Z,11.09
2023-04-15T09:54:56.624Z,11.26
2023-04-15T09:57:24.631Z,11.36
2023-04-15T09:59:52.180Z,11.49
2023-04-15T10:02:20.773Z,12.28
2023-04-15T10:04:49.650Z,11.32
2023-04-15T10:07:20.537Z,11.08
2023-04-15T10:09:49.690Z,11.25
2023-04-15T10:12:19.688Z,11.88
2023-04-15T10:14:53.639Z,11.44
2023-04-15T10:17:23.463Z,12.29
2023-04-15T10:19:55.474Z,11.47
2023-04-15T10:22:23.840Z,11.74
2023-04-15T10:24:52.256Z,11.41
2023-04-15T10:27:22.078Z,11.79
2023-04-15T10:29:50.345Z,11.98
2023-04-15T10:32:20.015Z,11.46
2023-04-15T10:34:48.297Z,11.27
2023-04-15T10:37:22.071Z,11.66
2023-04-15T10:39:50.717Z,11.60
2023-04-15T10:42:20.702Z,11.75
2023-04-15T10:44:51.590Z,11.59
2023-04-15T10:47:21.483Z,11.52
2023-04-15T10:49:50.900Z,11.16
2023-04-15T10:52:19.794Z,11.24
2023-04-15T10:54:47.570Z,11.53
2023-04-15T10:57:17.468Z,11.69
2023-04-15T11:00:12.828Z,12.66
2023-04-15T11:02:42.340Z,12.74
2023-04-15T11:05:10.601Z,12.68
2023-04-15T11:07:48.539Z,11.77
2023-04-15T11:10:53.754Z,11.40
2023-04-15T11:13:27.250Z,11.77
2023-04-15T11:16:00.281Z,11.44
2023-04-15T11:18:31.230Z,11.97
2023-04-15T11:21:01.111Z,11.77
2023-04-15T11:23:30.545Z,11.20
2023-04-15T11:25:58.534Z,11.64
2023-04-15T11:28:27.824Z,11.69
2023-04-15T11:30:55.648Z,12.09
2023-04-15T11:33:25.889Z,11.61
2023-04-15T11:35:55.067Z,12.48
2023-04-15T11:38:23.263Z,11.94
2023-04-15T11:40:52.100Z,11.94
2023-04-15T11:43:21.505Z,12.07
2023-04-15T11:45:51.478Z,11.72
2023-04-15T11:48:20.067Z,11.36
2023-04-15T11:50:54.478Z,11.77
2023-04-15T11:53:22.077Z,11.61
2023-04-15T11:55:51.224Z,12.26
2023-04-15T11:58:20.559Z,12.49
2023-04-15T12:00:49.646Z,11.97
2023-04-15T12:03:23.846Z,11.84
2023-04-15T12:06:23.494Z,12.04
2023-04-15T12:08:52.618Z,13.01
2023-04-15T12:11:20.519Z,13.25
2023-04-15T12:13:49.531Z,12.61
2023-04-15T12:16:18.680Z,12.03
2023-04-15T12:18:47.138Z,11.73
2023-04-15T12:21:15.418Z,11.92
2023-04-15T12:23:50.683Z,11.99
2023-04-15T12:26:19.133Z,12.30
2023-04-15T12:28:46.792Z,11.87
2023-04-15T12:31:15.596Z,11.81
2023-04-15T12:33:43.456Z,11.69
2023-04-15T12:36:10.927Z,11.98
2023-04-15T12:38:38.319Z,12.36
2023-04-15T12:41:07.041Z,12.02
2023-04-15T12:43:34.452Z,11.98
2023-04-15T12:46:01.840Z,11.78
2023-04-15T12:48:29.296Z,12.23
2023-04-15T12:50:56.880Z,12.55
2023-04-15T12:53:24.300Z,12.34
2023-04-15T12:55:51.806Z,12.53
2023-04-15T12:58:20.526Z,12.65
2023-04-15T13:00:48.621Z,12.48
2023-04-15T13:03:16.450Z,12.22
2023-04-15T13:05:44.408Z,11.78
2023-04-15T13:08:12.017Z,11.70
2023-04-15T13:10:39.501Z,12.27
2023-04-15T13:13:06.993Z,12.31
2023-04-15T13:15:35.929Z,11.74
2023-04-15T13:18:03.427Z,12.28
2023-04-15T13:20:31.255Z,12.29
2023-04-15T13:22:58.654Z,12.63
2023-04-15T13:25:27.058Z,12.40
2023-04-15T13:27:54.486Z,12.49
2023-04-15T13:30:21.952Z,12.04
2023-04-15T13:32:51.194Z,12.12
2023-04-15T13:35:18.832Z,12.17
2023-04-15T13:37:46.317Z,12.05
2023-04-15T13:40:13.842Z,12.40
2023-04-15T13:42:41.601Z,12.91
2023-04-15T13:45:11.063Z,12.85
2023-04-15T13:47:38.619Z,12.09
2023-04-15T13:50:08.529Z,12.53
2023-04-15T13:52:36.199Z,12.73
2023-04-15T13:55:08.172Z,12.44
2023-04-15T13:57:48.478Z,12.97
2023-04-15T14:00:16.643Z,13.01
2023-04-15T14:02:44.304Z,12.27
2023-04-15T14:05:13.168Z,12.31
2023-04-15T14:07:40.831Z,12.38
2023-04-15T14:10:09.313Z,12.53
2023-04-15T14:12:36.949Z,12.17
2023-04-15T14:15:05.058Z,11.92
2023-04-15T14:17:33.949Z,11.76
2023-04-15T14:20:01.508Z,11.97
2023-04-15T14:22:30.226Z,11.85
2023-04-15T14:24:57.656Z,12.06
2023-04-15T14:27:25.091Z,12.02
2023-04-15T14:29:53.534Z,11.65
2023-04-15T14:32:21.025Z,11.31
2023-04-15T14:34:48.522Z,12.10
2023-04-15T14:37:16.029Z,12.04
2023-04-15T14:39:44.770Z,12.06
2023-04-15T14:42:12.181Z,11.65
2023-04-15T14:44:39.629Z,11.49
2023-04-15T14:47:07.221Z,11.61
2023-04-15T14:49:34.653Z,11.44
2023-04-15T14:52:02.039Z,11.42
2023-04-15T14:54:29.459Z,11.56
2023-04-15T14:56:58.478Z,11.53
2023-04-15T14:59:26.114Z,11.44
2023-04-15T15:01:53.919Z,11.41
2023-04-15T15:04:21.558Z,11.53
2023-04-15T15:06:49.220Z,11.49
2023-04-15T15:09:16.771Z,11.38
2023-04-15T15:11:44.211Z,11.63
2023-04-15T15:14:12.946Z,11.72
2023-04-15T15:16:40.344Z,11.36
2023-04-15T15:19:07.745Z,11.41
2023-04-15T15:21:35.558Z,11.49
2023-04-15T15:24:02.948Z,11.66
2023-04-15T15:26:30.391Z,11.94
2023-04-15T15:28:58.003Z,11.60
2023-04-15T15:31:26.800Z,11.57
2023-04-15T15:33:54.316Z,11.67
2023-04-15T15:36:21.813Z,12.31
2023-04-15T15:38:49.230Z,11.59
2023-04-15T15:41:16.773Z,11.55
2023-04-15T15:43:44.179Z,11.93
2023-04-15T15:46:11.698Z,11.88
2023-04-15T15:48:40.494Z,11.52
2023-04-15T15:51:07.906Z,11.27
2023-04-15T15:53:35.378Z,11.50
2023-04-15T15:56:04.072Z,11.33
2023-04-15T15:58:32.020Z,11.39
2023-04-15T16:01:02.067Z,11.30
2023-04-15T16:03:30.110Z,11.31
2023-04-15T16:05:58.939Z,11.30
2023-04-15T16:08:26.596Z,11.73
2023-04-15T16:10:54.046Z,11.46
2023-04-15T16:13:21.453Z,11.64
2023-04-15T16:15:50.055Z,11.51
2023-04-15T16:18:17.608Z,11.82
2023-04-15T16:20:45.307Z,12.24
2023-04-15T16:23:15.651Z,11.53
2023-04-15T16:25:44.513Z,11.64
2023-04-15T16:28:25.118Z,11.79
2023-04-15T16:30:54.415Z,11.78
2023-04-15T16:33:21.901Z,11.59
2023-04-15T16:35:49.397Z,11.93
2023-04-15T16:38:18.223Z,12.27
2023-04-15T16:40:45.697Z,12.13
2023-04-15T16:43:13.139Z,12.22
2023-04-15T16:45:40.649Z,11.72
2023-04-15T16:48:08.313Z,11.66
2023-04-15T16:50:37.345Z,11.86
2023-04-15T16:53:04.791Z,12.11
2023-04-15T16:55:33.534Z,11.54
2023-04-15T16:58:04.184Z,11.65
2023-04-15T17:00:33.007Z,11.72
2023-04-15T17:03:01.461Z,12.47
2023-04-15T17:05:29.203Z,11.53
2023-04-15T17:07:56.616Z,12.04
2023-04-15T17:10:24.445Z,11.89
2023-04-15T17:12:53.382Z,12.33
2023-04-15T17:15:21.215Z,12.18
2023-04-15T17:17:48.760Z,12.42
2023-04-15T17:20:17.400Z,11.95
2023-04-15T17:22:45.212Z,12.35
2023-04-15T17:25:14.228Z,12.61
2023-04-15T17:27:41.879Z,11.81
2023-04-15T17:30:11.744Z,11.63
2023-04-15T17:32:40.019Z,11.58
2023-04-15T17:35:08.755Z,11.58
2023-04-15T17:37:36.288Z,11.61
2023-04-15T17:40:06.644Z,11.50
2023-04-15T17:42:35.568Z,11.43
2023-04-15T17:45:03.124Z,11.77
2023-04-15T17:47:31.974Z,11.79
2023-04-15T17:49:59.408Z,11.74
2023-04-15T17:52:26.907Z,11.68
2023-04-15T17:54:54.364Z,11.82
2023-04-15T17:57:21.772Z,11.84
2023-04-15T17:59:49.224Z,11.44
2023-04-15T18:02:16.748Z,11.65
2023-04-15T18:04:45.770Z,11.64
2023-04-15T18:07:13.488Z,11.43
2023-04-15T18:09:41.492Z,11.72
2023-04-15T18:12:09.188Z,11.71
2023-04-15T18:14:36.887Z,11.59
2023-04-15T18:17:04.559Z,11.33
2023-04-15T18:19:32.069Z,11.23
2023-04-15T18:22:00.980Z,11.70
2023-04-15T18:24:28.722Z,12.07
2023-04-15T18:26:56.394Z,12.31
2023-04-15T18:29:24.009Z,11.85
2023-04-15T18:31:52.630Z,12.47
2023-04-15T18:34:20.204Z,11.89
2023-04-15T18:36:47.638Z,12.24
2023-04-15T18:39:17.029Z,12.13
2023-04-15T18:41:44.497Z,11.59
2023-04-15T18:44:11.953Z,11.42
2023-04-15T18:46:39.444Z,11.20
2023-04-15T18:49:07.037Z,11.38
2023-04-15T18:51:34.667Z,11.15
2023-04-15T18:54:02.426Z,11.18
2023-04-15T18:56:31.516Z,11.09
2023-04-15T18:59:09.544Z,11.17
2023-04-15T19:01:46.697Z,11.26
2023-04-15T19:04:14.353Z,11.23
2023-04-15T19:06:41.913Z,11.32
2023-04-15T19:09:09.439Z,11.26
2023-04-15T19:11:38.397Z,11.83
2023-04-15T19:14:06.637Z,11.70
2023-04-15T19:16:34.091Z,12.38
2023-04-15T19:19:01.668Z,12.27
2023-04-15T19:21:30.450Z,12.71
2023-04-15T19:23:58.351Z,12.70
2023-04-15T19:26:25.803Z,12.01
2023-04-15T19:28:54.730Z,11.47
2023-04-15T19:31:22.210Z,11.59
2023-04-15T19:33:49.780Z,11.33
2023-04-15T19:36:18.073Z,11.38
2023-04-15T19:38:45.550Z,11.12
2023-04-15T19:41:13.079Z,11.48
2023-04-15T19:43:40.483Z,11.76
2023-04-15T19:46:09.610Z,11.42
2023-04-15T19:48:37.056Z,11.12
2023-04-15T19:51:04.650Z,11.51
2023-04-15T19:53:32.084Z,11.17
2023-04-15T19:55:59.561Z,11.00
2023-04-15T19:58:27.048Z,10.82
2023-04-15T20:00:54.553Z,11.00
2023-04-15T20:03:23.498Z,11.01
2023-04-15T20:05:51.145Z,11.02
2023-04-15T20:08:18.914Z,11.03
2023-04-15T20:10:46.352Z,11.44
2023-04-15T20:13:13.820Z,10.96
2023-04-15T20:15:41.351Z,10.69
2023-04-15T20:18:08.911Z,10.98
2023-04-15T20:20:41.479Z,11.13
2023-04-15T20:23:08.992Z,10.95
2023-04-15T20:25:36.464Z,10.94
2023-04-15T20:28:03.874Z,11.02
2023-04-15T20:30:31.309Z,10.97
2023-04-15T20:32:58.806Z,10.96
2023-04-15T20:35:28.186Z,10.95
2023-04-15T20:37:56.976Z,10.95
2023-04-15T20:40:24.429Z,11.23
2023-04-15T20:42:51.824Z,11.00
2023-04-15T20:45:19.252Z,10.76
2023-04-15T20:47:46.707Z,10.94
2023-04-15T20:50:14.383Z,10.75
2023-04-15T20:52:41.779Z,11.06
2023-04-15T20:55:11.161Z,11.25
2023-04-15T20:57:38.568Z,11.12
2023-04-15T21:00:09.331Z,10.81
2023-04-15T21:02:36.926Z,10.79
2023-04-15T21:05:04.655Z,10.92
2023-04-15T21:07:32.083Z,11.03
2023-04-15T21:09:59.486Z,11.09
2023-04-15T21:12:28.281Z,11.15
2023-04-15T21:14:55.719Z,11.15
2023-04-15T21:17:23.223Z,11.16
2023-04-15T21:19:50.843Z,11.26
2023-04-15T21:22:18.257Z,11.21
2023-04-15T21:24:45.673Z,11.25
2023-04-15T21:27:13.093Z,11.17
2023-04-15T21:29:41.818Z,11.22
2023-04-15T21:32:09.331Z,11.47
2023-04-15T21:34:36.986Z,12.95
2023-04-15T21:37:04.509Z,13.86
2023-04-15T21:39:32.386Z,13.27
2023-04-15T21:42:00.492Z,12.36
2023-04-15T21:44:27.994Z,13.15
2023-04-15T21:46:56.776Z,13.20
2023-04-15T21:49:25.524Z,12.50
2023-04-15T21:51:53.021Z,12.00
2023-04-15T21:54:20.453Z,11.66
2023-04-15T21:56:49.667Z,11.68
2023-04-15T21:59:17.102Z,11.83
2023-04-15T22:01:44.622Z,11.87
2023-04-15T22:04:13.654Z,11.63
2023-04-15T22:06:41.203Z,12.19
2023-04-15T22:09:08.684Z,12.27
2023-04-15T22:11:36.192Z,11.48
2023-04-15T22:14:03.657Z,11.31
2023-04-15T22:16:31.129Z,11.23
2023-04-15T22:18:58.627Z,11.11
2023-04-15T22:21:27.763Z,11.22
2023-04-15T22:24:38.869Z,11.73
2023-04-15T22:26:42.657Z,10.99
2023-04-15T22:29:10.620Z,11.12
2023-04-15T22:31:38.111Z,11.06
2023-04-15T22:34:05.599Z,11.07
2023-04-15T22:36:34.470Z,11.08
2023-04-15T22:39:01.860Z,10.94
2023-04-15T22:41:29.344Z,11.02
2023-04-15T22:43:56.748Z,10.96
2023-04-15T22:46:24.193Z,10.99
2023-04-15T22:48:51.613Z,11.19
2023-04-15T22:51:22.699Z,10.85
2023-04-15T22:53:51.501Z,10.67
2023-04-15T22:56:19.762Z,10.78
2023-04-15T22:58:47.197Z,11.09
2023-04-15T23:01:17.323Z,10.72
2023-04-15T23:03:55.822Z,10.78
2023-04-15T23:06:28.674Z,10.62
2023-04-15T23:08:57.356Z,10.70
2023-04-15T23:11:24.771Z,11.23
2023-04-15T23:13:53.050Z,11.34
2023-04-15T23:16:20.544Z,11.79
2023-04-15T23:18:48.027Z,11.35
2023-04-15T23:21:15.672Z,11.13
2023-04-15T23:23:43.096Z,11.26
2023-04-15T23:26:11.869Z,11.20
2023-04-15T23:28:39.320Z,11.36
2023-04-15T23:31:07.628Z,11.02
2023-04-15T23:33:35.149Z,10.98
2023-04-15T23:36:02.612Z,10.82
2023-04-15T23:38:30.023Z,11.22
2023-04-15T23:40:57.506Z,11.11
2023-04-15T23:43:26.350Z,12.07
2023-04-15T23:45:53.726Z,11.77
2023-04-15T23:48:23.544Z,11.44
2023-04-15T23:50:50.991Z,11.24
2023-04-15T23:53:18.525Z,11.25
2023-04-15T23:55:45.893Z,11.09
2023-04-15T23:58:13.348Z,11.29
